Time;durP1;ratioP1;P1;durP2;ratioP2;P2;SDS_P1;SDS_P2;PMS_P1;PMS_P2;Temp;Humidity;BMP_temperature;BMP_pressure;BME280_temperature;BME280_humidity;BME280_pressure;Samples;Min_cycle;Max_cycle;Signal;HPM_P1;HPM_P2
2023/10/23 00:01:59;;;;;;;2.35;2.00;;;;;;;;;;5025468;28;20059;-70
2023/10/23 00:04:25;;;;;;;2.08;1.83;;;7.30;99.90;;;;;;5040664;28;20041;-70
2023/10/23 00:06:51;;;;;;;2.72;1.80;;;;;;;;;;5048268;28;20501;-70
2023/10/23 00:09:17;;;;;;;4.50;2.10;;;;;;;;;;5038026;28;20114;-70
2023/10/23 00:11:43;;;;;;;2.05;1.63;;;;;;;;;;5051760;28;20040;-70
2023/10/23 00:14:09;;;;;;;3.10;1.55;;;;;;;;;;5031454;28;20504;-69
2023/10/23 00:16:35;;;;;;;2.92;1.75;;;;;;;;;;5045433;28;20088;-70
2023/10/23 00:19:00;;;;;;;1.95;1.60;;;6.90;99.90;;;;;;5047636;28;20510;-69
2023/10/23 00:21:26;;;;;;;3.83;1.90;;;;;;;;;;5037112;28;20067;-68
2023/10/23 00:23:52;;;;;;;3.78;1.58;;;;;;;;;;5054581;28;20040;-70
2023/10/23 00:26:18;;;;;;;2.28;2.08;;;;;;;;;;5036181;28;20056;-69
2023/10/23 00:28:44;;;;;;;13.25;2.33;;;;;;;;;;5035933;28;20115;-69
2023/10/23 00:31:10;;;;;;;2.33;2.08;;;7.20;99.90;;;;;;5037788;28;20470;-69
2023/10/23 00:33:35;;;;;;;4.38;1.95;;;7.30;99.90;;;;;;5030578;28;20037;-70
2023/10/23 00:36:01;;;;;;;5.03;2.13;;;;;;;;;;5052950;28;20043;-68
2023/10/23 00:38:28;;;;;;;3.40;1.60;;;;;;;;;;5035992;28;20542;-69
2023/10/23 00:40:55;;;;;;;24.05;2.78;;;;;;;;;;5064445;28;20043;-69
2023/10/23 00:43:22;;;;;;;6.82;2.22;;;;;;;;;;5042191;28;20049;-69
2023/10/23 00:45:53;;;;;;;4.68;2.25;;;;;;;;;;5057996;28;20094;-69
2023/10/23 00:48:20;;;;;;;6.30;2.50;;;;;;;;;;5039091;28;20060;-68
2023/10/23 00:50:47;;;;;;;3.08;2.80;;;;;;;;;;5038539;28;20078;-68
2023/10/23 00:53:13;;;;;;;3.25;2.92;;;;;;;;;;5041356;28;20509;-69
2023/10/23 00:55:40;;;;;;;4.55;2.90;;;;;;;;;;5042623;28;20044;-69
2023/10/23 00:58:06;;;;;;;5.20;2.92;;;;;;;;;;5046959;28;20071;-69
2023/10/23 01:00:33;;;;;;;3.03;2.78;;;;;;;;;;5039198;28;20597;-69
2023/10/23 01:03:00;;;;;;;3.40;2.80;;;;;;;;;;5059000;28;20049;-68
2023/10/23 01:05:26;;;;;;;8.13;3.63;;;;;;;;;;5042047;28;20077;-69
2023/10/23 01:07:52;;;;;;;4.45;2.92;;;;;;;;;;5069943;28;20086;-69
2023/10/23 01:10:18;;;;;;;3.20;2.53;;;;;;;;;;5044493;28;20455;-69
2023/10/23 01:12:44;;;;;;;3.38;2.80;;;;;;;;;;5063199;28;20050;-68
2023/10/23 01:15:10;;;;;;;3.65;2.90;;;;;;;;;;5043623;28;20032;-70
2023/10/23 01:17:36;;;;;;;4.00;3.10;;;;;;;;;;5063559;28;20048;-69
2023/10/23 01:20:03;;;;;;;6.28;3.65;;;;;;;;;;5044653;28;20388;-68
2023/10/23 01:22:28;;;;;;;8.07;4.50;;;;;;;;;;5049988;28;20254;-69
2023/10/23 01:24:55;;;;;;;5.70;4.75;;;;;;;;;;5060461;28;20040;-69
2023/10/23 01:27:21;;;;;;;5.40;4.63;;;;;;;;;;5057116;28;20077;-69
2023/10/23 01:29:47;;;;;;;4.97;3.53;;;7.00;99.90;;;;;;5028433;28;20044;-69
2023/10/23 01:32:13;;;;;;;3.85;3.50;;;;;;;;;;5065623;28;20097;-70
2023/10/23 01:34:39;;;;;;;4.03;3.58;;;;;;;;;;5059116;28;20160;-69
2023/10/23 01:37:05;;;;;;;5.22;3.80;;;;;;;;;;5038856;28;20052;-69
2023/10/23 01:39:31;;;;;;;4.20;3.55;;;;;;;;;;5044373;28;20054;-69
2023/10/23 01:41:56;;;;;;;6.80;3.40;;;7.00;99.90;;;;;;5055398;28;20123;-69
2023/10/23 01:44:22;;;;;;;6.38;3.95;;;;;;;;;;5030110;28;20041;-69
2023/10/23 01:46:48;;;;;;;4.15;3.75;;;;;;;;;;5064542;28;20346;-69
2023/10/23 01:49:14;;;;;;;7.75;3.42;;;;;;;;;;5042012;28;20054;-69
2023/10/23 01:51:40;;;;;;;10.70;3.30;;;;;;;;;;5039357;28;20389;-69
2023/10/23 01:54:06;;;;;;;12.70;3.10;;;;;;;;;;5034316;28;20079;-70
2023/10/23 01:56:33;;;;;;;6.35;3.05;;;;;;;;;;5046052;28;20040;-69
2023/10/23 01:58:59;;;;;;;37.63;4.55;;;;;;;;;;5044137;28;20058;-70
2023/10/23 02:01:26;;;;;;;3.63;3.33;;;;;;;;;;5040113;28;20131;-70
2023/10/23 02:03:52;;;;;;;5.97;3.47;;;;;;;;;;5047433;28;20374;-69
2023/10/23 02:06:18;;;;;;;5.07;3.28;;;;;;;;;;5059642;28;20165;-70
2023/10/23 02:08:44;;;;;;;13.02;3.05;;;;;;;;;;5048900;28;20056;-69
2023/10/23 02:11:10;;;;;;;30.65;3.63;;;;;;;;;;5038950;28;20079;-69
2023/10/23 02:13:36;;;;;;;29.52;3.75;;;;;;;;;;5039447;28;20048;-69
2023/10/23 02:16:02;;;;;;;18.85;3.40;;;;;;;;;;5045527;28;20483;-69
2023/10/23 02:18:28;;;;;;;33.33;3.85;;;6.10;99.90;;;;;;5037606;28;20526;-69
2023/10/23 02:20:54;;;;;;;29.70;3.58;;;;;;;;;;5054761;28;20050;-70
2023/10/23 02:23:20;;;;;;;15.68;3.22;;;;;;;;;;5033809;28;20098;-69
2023/10/23 02:25:46;;;;;;;8.15;3.80;;;;;;;;;;5040326;28;20537;-70
2023/10/23 02:28:13;;;;;;;85.05;7.78;;;;;;;;;;5044670;28;20603;-69
2023/10/23 02:30:40;;;;;;;5.00;3.17;;;;;;;;;;5035591;28;20048;-69
2023/10/23 02:33:06;;;;;;;3.38;3.05;;;;;;;;;;5045521;28;20431;-69
2023/10/23 02:35:35;;;;;;;4.47;3.95;;;;;;;;;;5044153;28;20048;-69
2023/10/23 02:38:01;;;;;;;4.95;3.95;;;;;;;;;;5040566;28;20048;-69
2023/10/23 02:40:27;;;;;;;7.70;3.40;;;;;;;;;;5040243;28;20139;-69
2023/10/23 02:42:53;;;;;;;3.03;2.72;;;;;;;;;;5045734;28;20044;-69
2023/10/23 02:45:19;;;;;;;3.35;2.70;;;;;;;;;;5040980;28;20056;-69
2023/10/23 02:47:45;;;;;;;3.60;3.30;;;;;;;;;;5043377;28;20052;-69
2023/10/23 02:50:11;;;;;;;3.63;2.55;;;;;;;;;;5059899;28;20045;-69
2023/10/23 02:52:37;;;;;;;3.22;2.33;;;;;;;;;;5058428;28;20052;-69
2023/10/23 02:55:03;;;;;;;4.15;3.22;;;;;;;;;;5038752;28;20044;-69
2023/10/23 02:57:29;;;;;;;3.75;3.00;;;;;;;;;;5035465;28;20425;-69
2023/10/23 02:59:55;;;;;;;3.58;2.90;;;;;;;;;;5039842;28;20087;-70
2023/10/23 03:02:21;;;;;;;9.75;2.58;;;;;;;;;;5039733;28;20040;-69
2023/10/23 03:04:47;;;;;;;1.95;1.73;;;;;;;;;;5039522;28;20044;-70
2023/10/23 03:07:14;;;;;;;3.13;1.92;;;6.20;99.90;;;;;;5039653;28;20098;-69
2023/10/23 03:09:40;;;;;;;8.57;2.78;;;;;;;;;;5064327;28;20098;-69
2023/10/23 03:12:06;;;;;;;7.38;2.00;;;;;;;;;;5067786;28;20446;-69
2023/10/23 03:14:32;;;;;;;3.45;2.42;;;;;;;;;;5042633;28;20042;-69
2023/10/23 03:16:59;;;;;;;3.85;2.83;;;;;;;;;;5047762;28;20056;-68
2023/10/23 03:19:25;;;;;;;4.60;3.03;;;;;;;;;;5051698;28;20047;-69
2023/10/23 03:21:52;;;;;;;2.97;2.47;;;;;;;;;;5046271;28;20055;-69
2023/10/23 03:24:18;;;;;;;3.45;2.45;;;;;;;;;;5046281;28;20044;-69
2023/10/23 03:26:44;;;;;;;2.45;2.25;;;;;;;;;;5061556;28;20056;-70
2023/10/23 03:29:10;;;;;;;3.83;2.30;;;;;;;;;;5067132;28;20677;-69
2023/10/23 03:31:36;;;;;;;2.95;2.65;;;;;;;;;;5042574;28;20044;-70
2023/10/23 03:34:02;;;;;;;4.88;2.38;;;6.10;99.90;;;;;;5037470;28;20513;-70
2023/10/23 03:36:28;;;;;;;1.90;1.70;;;;;;;;;;5031005;28;20051;-69
2023/10/23 03:38:54;;;;;;;2.95;2.28;;;6.00;99.90;;;;;;5049152;28;20079;-69
2023/10/23 03:41:20;;;;;;;4.20;2.80;;;;;;;;;;5060639;28;20051;-68
2023/10/23 03:43:46;;;;;;;7.32;3.63;;;;;;;;;;5048928;28;20499;-69
2023/10/23 03:46:12;;;;;;;3.35;3.05;;;;;;;;;;5038729;28;20091;-69
2023/10/23 03:48:38;;;;;;;11.02;3.85;;;;;;;;;;5036206;28;20363;-69
2023/10/23 03:51:04;;;;;;;6.65;3.10;;;;;;;;;;5062544;28;20123;-69
2023/10/23 03:53:30;;;;;;;3.95;3.55;;;6.00;99.90;;;;;;5062688;28;20037;-69
2023/10/23 03:55:56;;;;;;;4.13;3.20;;;;;;;;;;5046558;28;20488;-69
2023/10/23 03:58:22;;;;;;;6.10;4.55;;;;;;;;;;5026193;28;20044;-69
2023/10/23 04:00:51;;;;;;;9.60;6.68;;;;;;;;;;5036209;28;20044;-69
2023/10/23 04:03:17;;;;;;;9.35;6.63;;;;;;;;;;5043244;28;20053;-69
2023/10/23 04:05:43;;;;;;;18.17;6.70;;;;;;;;;;5044678;28;20138;-70
2023/10/23 04:08:09;;;;;;;11.77;7.63;;;;;;;;;;5047902;28;20193;-69
2023/10/23 04:10:35;;;;;;;11.40;6.72;;;6.30;99.90;;;;;;5036521;28;20435;-69
2023/10/23 04:13:02;;;;;;;7.63;5.75;;;;;;;;;;5040771;28;20049;-69
2023/10/23 04:15:28;;;;;;;10.10;6.60;;;;;;;;;;5045009;28;20094;-69
2023/10/23 04:17:54;;;;;;;11.27;6.57;;;;;;;;;;5044089;28;20051;-69
2023/10/23 04:20:20;;;;;;;6.68;5.55;;;6.50;99.90;;;;;;5042700;28;20458;-70
2023/10/23 04:22:45;;;;;;;7.65;5.72;;;6.40;99.90;;;;;;5045031;28;20043;-70
2023/10/23 04:25:11;;;;;;;9.68;5.97;;;;;;;;;;5044327;28;20040;-70
2023/10/23 04:27:37;;;;;;;8.38;5.72;;;;;;;;;;5039908;28;20543;-69
2023/10/23 04:30:04;;;;;;;8.00;5.22;;;6.20;99.90;;;;;;5036627;28;20045;-70
2023/10/23 04:32:30;;;;;;;5.65;4.72;;;;;;;;;;5036573;28;20045;-69
2023/10/23 04:34:56;;;;;;;8.63;5.57;;;;;;;;;;5021807;28;20048;-70
2023/10/23 04:37:22;;;;;;;12.02;4.85;;;;;;;;;;5037529;28;20049;-70
2023/10/23 04:39:48;;;;;;;5.97;4.50;;;;;;;;;;5037745;28;20458;-70
2023/10/23 04:42:14;;;;;;;7.55;4.50;;;;;;;;;;5040403;28;20060;-69
2023/10/23 04:44:40;;;;;;;5.25;4.13;;;;;;;;;;5038055;28;20539;-70
2023/10/23 04:47:06;;;;;;;6.85;4.18;;;;;;;;;;5037912;28;20053;-70
2023/10/23 04:49:32;;;;;;;7.97;5.88;;;;;;;;;;5038625;28;20051;-69
2023/10/23 04:51:58;;;;;;;50.88;6.82;;;;;;;;;;5041555;28;20068;-70
2023/10/23 04:54:24;;;;;;;136.15;9.48;;;;;;;;;;5021545;28;20131;-69
2023/10/23 04:56:50;;;;;;;5.18;3.35;;;;;;;;;;5048421;28;20078;-69
2023/10/23 04:59:16;;;;;;;11.70;5.07;;;;;;;;;;5058093;28;20123;-67
2023/10/23 05:01:41;;;;;;;7.57;4.90;;;6.00;99.90;;;;;;5059474;28;20043;-67
2023/10/23 05:04:07;;;;;;;7.38;5.03;;;;;;;;;;5062218;28;20411;-68
2023/10/23 05:06:33;;;;;;;6.05;4.72;;;;;;;;;;5060493;28;20053;-68
2023/10/23 05:08:59;;;;;;;5.15;4.18;;;;;;;;;;5051146;28;20044;-68
2023/10/23 05:11:25;;;;;;;8.60;5.43;;;;;;;;;;5028660;28;20056;-67
2023/10/23 05:13:51;;;;;;;8.15;6.00;;;;;;;;;;5049221;28;20442;-67
2023/10/23 05:16:17;;;;;;;9.98;6.38;;;;;;;;;;5032811;28;20056;-67
2023/10/23 05:18:43;;;;;;;10.98;6.32;;;;;;;;;;5028789;28;20048;-67
2023/10/23 05:21:10;;;;;;;9.07;6.97;;;;;;;;;;5031839;28;20484;-66
2023/10/23 05:23:40;;;;;;;10.23;8.13;;;;;;;;;;5033228;28;20062;-66
2023/10/23 05:26:07;;;;;;;10.90;7.20;;;;;;;;;;5029894;28;20497;-67
2023/10/23 05:28:33;;;;;;;8.18;6.15;;;;;;;;;;5030106;28;20071;-67
2023/10/23 05:30:59;;;;;;;8.80;5.30;;;;;;;;;;5028504;28;20586;-68
2023/10/23 05:33:25;;;;;;;7.35;5.80;;;;;;;;;;5051779;28;20419;-68
2023/10/23 05:36:00;;;;;;;30.33;6.22;;;;;;;;;;5030369;28;20044;-66
2023/10/23 05:38:26;;;;;;;63.50;7.22;;;;;;;;;;5032786;28;20074;-67
2023/10/23 05:40:56;;;;;;;10.52;4.70;;;;;;;;;;5037240;28;20037;-67
2023/10/23 05:43:22;;;;;;;5.50;4.28;;;;;;;;;;5042620;28;20079;-66
2023/10/23 05:45:48;;;;;;;21.40;5.55;;;;;;;;;;5033163;28;20033;-67
2023/10/23 05:48:14;;;;;;;12.02;4.53;;;;;;;;;;5050796;28;20470;-67
2023/10/23 05:50:40;;;;;;;60.20;7.38;;;;;;;;;;5017080;28;20037;-67
2023/10/23 05:53:06;;;;;;;4.10;3.70;;;;;;;;;;5064889;28;20495;-67
2023/10/23 05:55:35;;;;;;;5.40;4.07;;;;;;;;;;5058089;28;20040;-68
2023/10/23 05:58:02;;;;;;;20.92;4.68;;;;;;;;;;5060612;28;20182;-66
2023/10/23 06:00:28;;;;;;;24.50;4.43;;;;;;;;;;5050021;28;20047;-66
2023/10/23 06:02:54;;;;;;;3.63;3.30;;;;;;;;;;5032044;28;20052;-66
2023/10/23 06:05:20;;;;;;;3.85;3.53;;;;;;;;;;5022590;28;20036;-67
2023/10/23 06:07:46;;;;;;;32.05;4.88;;;;;;;;;;5034909;28;20546;-66
2023/10/23 06:10:12;;;;;;;79.18;6.55;;;;;;;;;;5024621;28;20051;-66
2023/10/23 06:12:38;;;;;;;72.78;6.68;;;;;;;;;;5035894;28;20526;-66
2023/10/23 06:15:05;;;;;;;56.28;5.45;;;;;;;;;;5036269;28;20032;-66
2023/10/23 06:17:31;;;;;;;3.38;3.08;;;;;;;;;;5031434;28;20150;-66
2023/10/23 06:19:57;;;;;;;6.53;4.75;;;;;;;;;;5054389;28;20582;-66
2023/10/23 06:22:23;;;;;;;5.30;4.40;;;;;;;;;;5034301;28;20067;-67
2023/10/23 06:24:51;;;;;;;6.72;5.25;;;;;;;;;;5033714;28;20519;-66
2023/10/23 06:27:17;;;;;;;6.50;4.93;;;;;;;;;;5051671;28;20392;-66
2023/10/23 06:29:43;;;;;;;4.78;3.72;;;;;;;;;;5038992;28;20044;-66
2023/10/23 06:32:11;;;;;;;6.22;4.32;;;;;;;;;;5032551;28;20074;-66
2023/10/23 06:34:37;;;;;;;32.60;4.45;;;;;;;;;;5030439;28;20067;-65
2023/10/23 06:37:03;;;;;;;4.53;3.88;;;;;;;;;;5045101;28;20044;-67
2023/10/23 06:39:29;;;;;;;6.88;4.50;;;;;;;;;;5034166;28;20047;-66
2023/10/23 06:41:55;;;;;;;7.45;4.75;;;;;;;;;;5050077;28;20072;-66
2023/10/23 06:44:21;;;;;;;8.70;5.25;;;;;;;;;;5032015;28;20040;-65
2023/10/23 06:46:47;;;;;;;8.98;5.53;;;;;;;;;;5033297;28;20044;-66
2023/10/23 06:49:13;;;;;;;8.93;4.30;;;;;;;;;;5054763;28;20044;-65
2023/10/23 06:51:39;;;;;;;4.95;4.35;;;;;;;;;;5047995;28;20076;-66
2023/10/23 06:54:05;;;;;;;3.88;3.47;;;;;;;;;;5053449;28;20044;-66
2023/10/23 06:56:31;;;;;;;4.20;3.75;;;;;;;;;;5029330;28;20044;-67
2023/10/23 06:58:57;;;;;;;6.07;3.78;;;;;;;;;;5046884;28;20036;-68
2023/10/23 07:01:23;;;;;;;4.80;4.28;;;;;;;;;;5051340;28;20040;-65
2023/10/23 07:03:49;;;;;;;7.72;5.63;;;;;;;;;;5032326;28;20056;-65
2023/10/23 07:06:15;;;;;;;7.15;5.50;;;;;;;;;;5049512;28;20105;-65
2023/10/23 07:08:41;;;;;;;8.55;6.00;;;;;;;;;;5034300;28;20044;-65
2023/10/23 07:11:13;;;;;;;8.85;6.15;;;;;;;;;;5050659;28;20044;-65
2023/10/23 07:13:39;;;;;;;7.63;6.72;;;;;;;;;;5050022;28;20526;-65
2023/10/23 07:16:06;;;;;;;8.80;6.97;;;;;;;;;;5021098;28;20443;-65
2023/10/23 07:18:32;;;;;;;10.57;7.15;;;;;;;;;;5039429;28;20052;-65
2023/10/23 07:21:01;;;;;;;9.93;8.25;;;;;;;;;;5049967;28;20071;-66
2023/10/23 07:23:31;;;;;;;9.40;6.85;;;;;;;;;;5034818;28;20045;-66
2023/10/23 07:26:08;;;;;;;9.02;6.75;;;;;;;;;;5050742;28;20467;-66
2023/10/23 07:28:35;;;;;;;9.10;6.28;;;;;;;;;;5018683;28;20040;-67
2023/10/23 07:31:03;;;;;;;8.50;6.95;;;;;;;;;;5032347;28;20467;-66
2023/10/23 07:33:29;;;;;;;8.52;6.25;;;;;;;;;;5030161;28;20047;-65
2023/10/23 07:36:04;;;;;;;13.95;8.63;;;;;;;;;;5051553;28;20049;-66
2023/10/23 07:38:30;;;;;;;11.13;7.55;;;;;;;;;;5053921;28;20471;-69
2023/10/23 07:40:57;;;;;;;11.32;9.00;;;;;;;;;;5055746;28;20037;-68
2023/10/23 07:43:23;;;;;;;14.73;8.60;;;;;;;;;;5057336;28;20052;-67
2023/10/23 07:45:49;;;;;;;12.65;9.48;;;;;;;;;;5064758;28;20105;-67
2023/10/23 07:48:15;;;;;;;16.58;9.40;;;;;;;;;;5037275;28;20041;-68
2023/10/23 07:50:41;;;;;;;17.52;9.60;;;;;;;;;;5037355;28;20037;-69
2023/10/23 07:53:07;;;;;;;14.38;8.90;;;;;;;;;;5036619;28;20385;-68
2023/10/23 07:55:33;;;;;;;14.70;10.32;;;;;;;;;;5044688;28;20079;-68
2023/10/23 07:58:00;;;;;;;17.55;10.32;;;;;;;;;;5036340;28;20127;-67
2023/10/23 08:00:28;;;;;;;16.02;10.77;;;;;;;;;;5058994;28;20375;-70
2023/10/23 08:02:54;;;;;;;19.42;11.32;;;;;;;;;;5041768;28;20091;-70
2023/10/23 08:05:20;;;;;;;16.90;11.32;;;;;;;;;;5040421;28;20050;-68
2023/10/23 08:07:46;;;;;;;15.55;11.48;;;;;;;;;;5053666;28;20103;-67
2023/10/23 08:10:12;;;;;;;13.20;10.20;;;;;;;;;;5049347;28;20532;-68
2023/10/23 08:12:38;;;;;;;15.88;11.23;;;;;;;;;;5034866;28;20044;-69
2023/10/23 08:15:04;;;;;;;12.35;10.15;;;;;;;;;;5052282;28;20063;-69
2023/10/23 08:17:30;;;;;;;13.45;9.43;;;;;;;;;;5034897;28;20060;-68
2023/10/23 08:19:57;;;;;;;12.65;9.50;;;10.40;99.90;;;;;;5037647;28;20040;-67
2023/10/23 08:22:23;;;;;;;14.63;8.65;;;;;;;;;;5038051;28;20048;-68
2023/10/23 08:24:49;;;;;;;11.55;9.13;;;;;;;;;;5040379;28;20098;-67
2023/10/23 08:27:15;;;;;;;11.10;8.18;;;;;;;;;;5040782;28;20051;-68
2023/10/23 08:29:41;;;;;;;13.10;8.27;;;;;;;;;;5060591;28;20040;-69
2023/10/23 08:32:07;;;;;;;10.82;8.95;;;;;;;;;;5032454;28;20530;-69
2023/10/23 08:34:32;;;;;;;9.52;8.27;;;11.80;99.90;;;;;;5039082;28;20042;-68
2023/10/23 08:36:58;;;;;;;12.45;7.85;;;;;;;;;;5055790;28;20044;-68
2023/10/23 08:39:25;;;;;;;10.32;8.20;;;;;;;;;;5057542;28;20129;-67
2023/10/23 08:41:51;;;;;;;10.35;8.20;;;;;;;;;;5030951;28;20447;-67
2023/10/23 08:44:17;;;;;;;11.73;8.02;;;12.40;99.90;;;;;;5049835;28;20045;-67
2023/10/23 08:46:43;;;;;;;9.88;7.75;;;12.70;99.90;;;;;;5031889;28;20071;-68
2023/10/23 08:49:09;;;;;;;10.13;8.65;;;12.70;99.90;;;;;;5035857;28;20579;-67
2023/10/23 08:51:37;;;;;;;11.60;7.82;;;12.70;99.90;;;;;;5029849;28;21377;-68
2023/10/23 08:54:07;;;;;;;10.07;8.52;;;13.00;99.90;;;;;;5024526;28;20051;-67
2023/10/23 08:56:37;;;;;;;9.50;7.45;;;13.30;99.90;;;;;;5056720;28;20036;-67
2023/10/23 08:59:04;;;;;;;9.27;7.78;;;;;;;;;;5038866;28;20093;-68
2023/10/23 09:01:30;;;;;;;10.15;7.40;;;;;;;;;;5034689;28;20375;-68
2023/10/23 09:03:56;;;;;;;12.43;7.22;;;14.10;99.90;;;;;;5048907;28;20493;-67
2023/10/23 09:06:21;;;;;;;9.20;6.55;;;14.50;99.90;;;;;;5034121;28;20060;-67
2023/10/23 09:08:47;;;;;;;9.68;7.07;;;;;;;;;;5051685;28;20036;-67
2023/10/23 09:11:13;;;;;;;8.73;6.75;;;14.80;99.90;;;;;;5058614;28;20049;-67
2023/10/23 09:13:41;;;;;;;8.18;6.32;;;15.30;99.90;;;;;;5037329;28;20393;-68
2023/10/23 09:16:08;;;;;;;8.25;6.32;;;15.40;99.90;;;;;;5054482;28;20056;-67
2023/10/23 09:18:44;;;;;;;11.90;5.70;;;15.80;99.90;;;;;;5036674;28;20052;-67
2023/10/23 09:21:11;;;;;;;8.52;4.47;;;16.20;99.90;;;;;;5057740;28;20053;-69
2023/10/23 09:23:50;;;;;;;5.72;4.65;;;16.50;99.90;;;;;;5055933;28;20052;-68
2023/10/23 09:26:15;;;;;;;6.75;5.07;;;17.70;99.90;;;;;;5058521;28;20053;-68
2023/10/23 09:28:41;;;;;;;5.88;4.70;;;18.00;99.90;;;;;;5039253;28;20037;-68
2023/10/23 09:31:06;;;;;;;6.95;5.05;;;19.30;99.90;;;;;;5056703;28;20036;-69
2023/10/23 09:33:32;;;;;;;6.38;5.07;;;20.70;99.90;;;;;;5034770;28;20041;-68
2023/10/23 09:36:00;;;;;;;7.38;5.15;;;21.30;99.90;;;;;;5061068;28;20045;-68
2023/10/23 09:38:26;;;;;;;6.57;5.05;;;23.20;99.90;;;;;;5064099;28;20040;-69
2023/10/23 09:40:56;;;;;;;5.32;4.25;;;22.60;99.90;;;;;;5063011;28;20052;-69
2023/10/23 09:43:23;;;;;;;5.63;4.28;;;24.30;99.90;;;;;;5047416;28;20052;-69
2023/10/23 09:45:51;;;;;;;6.20;4.35;;;23.60;99.90;;;;;;5044849;28;20057;-67
2023/10/23 09:48:18;;;;;;;6.00;3.58;;;24.20;99.90;;;;;;5032532;28;20052;-69
2023/10/23 09:50:48;;;;;;;8.40;3.78;;;24.20;99.90;;;;;;5063673;28;20032;-68
2023/10/23 09:53:15;;;;;;;5.90;3.88;;;23.90;99.90;;;;;;5056594;28;20048;-68
2023/10/23 09:55:44;;;;;;;6.57;3.95;;;23.50;99.90;;;;;;5054252;28;20109;-68
2023/10/23 09:58:16;;;;;;;6.57;3.90;;;22.70;99.90;;;;;;5061492;28;20044;-68
2023/10/23 10:00:48;;;;;;;6.53;3.80;;;21.80;99.90;;;;;;5041300;28;20455;-67
2023/10/23 10:03:18;;;;;;;7.57;3.45;;;21.10;99.90;;;;;;5050920;28;20037;-67
2023/10/23 10:05:56;;;;;;;4.45;3.15;;;22.30;99.90;;;;;;5060982;28;20325;-67
2023/10/23 10:08:24;;;;;;;4.13;2.85;;;19.70;99.90;;;;;;5058550;28;20115;-67
2023/10/23 10:10:50;;;;;;;5.57;3.13;;;18.00;99.90;;;;;;5060090;28;20072;-67
2023/10/23 10:13:16;;;;;;;4.90;3.00;;;;;;;;;;5058459;28;20095;-67
2023/10/23 10:15:43;;;;;;;4.40;3.10;;;17.30;99.90;;;;;;5041417;28;20279;-67
2023/10/23 10:18:10;;;;;;;5.20;2.90;;;17.40;99.90;;;;;;5031471;28;20045;-67
2023/10/23 10:20:37;;;;;;;5.38;2.92;;;17.30;99.90;;;;;;5056835;28;20040;-67
2023/10/23 10:23:10;;;;;;;4.97;2.85;;;17.10;99.90;;;;;;5035423;28;20047;-67
2023/10/23 10:25:38;;;;;;;6.60;3.08;;;17.30;99.90;;;;;;5038462;28;20672;-66
2023/10/23 10:28:05;;;;;;;6.65;2.50;;;16.90;99.90;;;;;;5057503;28;20059;-67
2023/10/23 10:30:45;;;;;;;4.82;2.28;;;14.80;99.90;;;;;;5059305;28;20455;-67
2023/10/23 10:33:21;;;;;;;3.72;2.40;;;16.40;99.90;;;;;;5043684;28;20040;-67
2023/10/23 10:35:52;;;;;;;3.65;2.20;;;16.40;99.90;;;;;;5051353;28;20045;-67
2023/10/23 10:38:23;;;;;;;4.72;2.50;;;16.40;99.90;;;;;;5057234;28;20125;-67
2023/10/23 10:41:24;;;;;;;3.75;2.67;;;16.50;99.90;;;;;;5061865;28;20060;-67
2023/10/23 10:43:51;;;;;;;5.30;2.97;;;;;;;;;;5053684;28;20041;-68
2023/10/23 10:46:21;;;;;;;5.95;2.47;;;16.20;99.90;;;;;;5052691;28;20127;-66
2023/10/23 10:48:55;;;;;;;4.80;2.80;;;16.00;99.90;;;;;;5033322;28;20041;-68
2023/10/23 10:51:25;;;;;;;7.90;3.45;;;15.70;99.90;;;;;;5051333;28;20040;-68
2023/10/23 10:54:03;;;;;;;4.15;3.17;;;15.60;99.90;;;;;;5056590;28;20120;-68
2023/10/23 10:56:29;;;;;;;5.60;3.28;;;15.60;99.90;;;;;;5058780;28;20076;-68
2023/10/23 10:58:59;;;;;;;8.88;4.30;;;15.60;99.90;;;;;;5022853;28;20041;-68
2023/10/23 11:01:25;;;;;;;6.95;4.82;;;;;;;;;;5060739;28;20487;-68
2023/10/23 11:03:51;;;;;;;7.25;4.45;;;15.20;99.90;;;;;;5034301;28;20045;-68
2023/10/23 11:06:17;;;;;;;7.90;5.40;;;;;;;;;;5057980;28;20044;-67
2023/10/23 11:08:43;;;;;;;7.43;5.80;;;;;;;;;;5056930;28;20040;-68
2023/10/23 11:11:09;;;;;;;6.00;3.90;;;;;;;;;;5034649;28;20072;-69
2023/10/23 11:13:35;;;;;;;6.47;3.65;;;;;;;;;;5054563;28;20454;-67
2023/10/23 11:16:01;;;;;;;4.95;3.83;;;15.00;99.90;;;;;;5058599;28;20617;-67
2023/10/23 11:18:30;;;;;;;6.20;4.50;;;15.00;99.90;;;;;;5049810;28;20279;-67
2023/10/23 11:20:58;;;;;;;9.18;6.30;;;14.90;99.90;;;;;;5044944;28;20037;-66
2023/10/23 11:23:24;;;;;;;10.88;7.60;;;;;;;;;;5056138;28;20041;-68
2023/10/23 11:25:51;;;;;;;10.27;8.07;;;14.80;99.90;;;;;;5060660;28;20127;-66
2023/10/23 11:28:17;;;;;;;9.50;6.60;;;14.50;99.90;;;;;;5061626;28;20496;-67
2023/10/23 11:30:49;;;;;;;9.82;8.23;;;14.30;99.90;;;;;;5050780;28;20508;-66
2023/10/23 11:33:17;;;;;;;12.35;8.65;;;14.20;99.90;;;;;;5054521;28;20059;-67
2023/10/23 11:35:44;;;;;;;13.88;10.60;;;;;;;;;;5049366;28;20068;-67
2023/10/23 11:38:19;;;;;;;13.60;10.43;;;;;;;;;;5051007;28;20056;-66
2023/10/23 11:40:46;;;;;;;12.40;10.20;;;13.70;99.90;;;;;;5038507;28;20127;-66
2023/10/23 11:43:13;;;;;;;13.52;10.05;;;;;;;;;;5031732;28;20044;-68
2023/10/23 11:45:40;;;;;;;12.25;9.25;;;;;;;;;;5036375;28;20071;-68
2023/10/23 11:48:10;;;;;;;12.63;10.18;;;13.20;99.90;;;;;;5036239;28;20033;-67
2023/10/23 11:50:36;;;;;;;12.27;9.30;;;;;;;;;;5049648;28;20036;-67
2023/10/23 11:53:06;;;;;;;11.02;8.25;;;;;;;;;;5050331;28;20040;-67
2023/10/23 11:55:32;;;;;;;11.25;8.90;;;;;;;;;;5053097;28;20040;-67
2023/10/23 11:57:59;;;;;;;12.65;9.07;;;;;;;;;;5059821;28;20045;-67
2023/10/23 12:00:25;;;;;;;15.60;10.45;;;;;;;;;;5038628;28;20097;-67
2023/10/23 12:02:51;;;;;;;14.07;9.93;;;;;;;;;;5051804;28;20128;-67
2023/10/23 12:05:18;;;;;;;13.30;10.40;;;;;;;;;;5053198;28;20560;-68
2023/10/23 12:07:46;;;;;;;20.17;12.43;;;;;;;;;;5035764;28;20428;-67
2023/10/23 12:10:12;;;;;;;16.05;10.43;;;;;;;;;;5054574;28;20132;-69
2023/10/23 12:12:39;;;;;;;14.05;10.85;;;;;;;;;;5043575;28;20043;-67
2023/10/23 12:15:06;;;;;;;17.50;12.10;;;;;;;;;;5053446;28;20040;-69
2023/10/23 12:17:32;;;;;;;16.65;12.10;;;;;;;;;;5042004;28;20515;-68
2023/10/23 12:19:58;;;;;;;17.35;12.98;;;;;;;;;;5031054;28;20049;-67
2023/10/23 12:22:24;;;;;;;18.77;11.90;;;;;;;;;;5058870;28;20432;-67
2023/10/23 12:24:50;;;;;;;18.42;12.45;;;12.60;99.90;;;;;;5032055;28;20363;-67
2023/10/23 12:27:16;;;;;;;19.13;13.07;;;;;;;;;;5055476;28;20052;-67
2023/10/23 12:29:41;;;;;;;19.70;12.88;;;12.70;99.90;;;;;;5032507;28;20123;-68
2023/10/23 12:32:07;;;;;;;17.52;13.85;;;;;;;;;;5057950;28;20563;-68
2023/10/23 12:34:35;;;;;;;16.65;11.70;;;;;;;;;;5032832;28;20381;-68
2023/10/23 12:37:01;;;;;;;17.77;11.98;;;;;;;;;;5062005;28;20566;-68
2023/10/23 12:39:29;;;;;;;20.25;13.57;;;;;;;;;;5034864;28;20102;-68
2023/10/23 12:41:55;;;;;;;19.20;13.00;;;;;;;;;;5057662;28;20385;-68
2023/10/23 12:44:21;;;;;;;17.85;12.52;;;;;;;;;;5056565;28;20036;-68
2023/10/23 12:46:47;;;;;;;20.67;14.55;;;;;;;;;;5051264;28;20355;-68
2023/10/23 12:49:13;;;;;;;23.27;13.75;;;;;;;;;;5035828;28;20069;-68
2023/10/23 12:51:38;;;;;;;27.75;14.80;;;;;;;;;;5029464;28;20141;-67
2023/10/23 12:54:05;;;;;;;21.50;14.68;;;;;;;;;;5039835;28;20120;-66
2023/10/23 12:56:32;;;;;;;25.60;15.02;;;;;;;;;;5038809;28;20545;-67
2023/10/23 12:58:58;;;;;;;23.45;14.38;;;;;;;;;;5035104;28;20048;-67
2023/10/23 13:01:24;;;;;;;21.92;14.18;;;;;;;;;;5042552;28;20146;-67
2023/10/23 13:03:50;;;;;;;22.13;15.18;;;;;;;;;;5044175;28;20118;-67
2023/10/23 13:06:17;;;;;;;21.20;14.95;;;;;;;;;;5037940;28;20452;-67
2023/10/23 13:08:43;;;;;;;21.48;14.48;;;12.40;99.90;;;;;;5033130;28;20091;-68
2023/10/23 13:11:09;;;;;;;23.52;15.32;;;;;;;;;;5031162;28;20082;-67
2023/10/23 13:13:35;;;;;;;21.42;13.73;;;;;;;;;;5058735;28;20151;-68
2023/10/23 13:16:01;;;;;;;19.67;13.55;;;;;;;;;;5030799;28;20080;-67
2023/10/23 13:18:27;;;;;;;23.27;14.27;;;;;;;;;;5057345;28;20037;-67
2023/10/23 13:20:53;;;;;;;24.92;14.48;;;;;;;;;;5033214;28;20478;-68
2023/10/23 13:23:19;;;;;;;26.85;15.63;;;;;;;;;;5033680;28;20078;-69
2023/10/23 13:25:45;;;;;;;28.58;16.58;;;;;;;;;;5027157;28;20055;-67
2023/10/23 13:28:11;;;;;;;27.20;15.70;;;;;;;;;;5055245;28;20329;-68
2023/10/23 13:30:37;;;;;;;27.30;15.73;;;;;;;;;;5026446;28;20041;-67
2023/10/23 13:33:04;;;;;;;26.50;15.75;;;;;;;;;;5020292;28;20041;-67
2023/10/23 13:35:30;;;;;;;26.40;15.98;;;;;;;;;;5023229;28;20052;-67
2023/10/23 13:37:56;;;;;;;27.17;16.25;;;;;;;;;;5045363;28;20073;-68
2023/10/23 13:40:22;;;;;;;27.65;17.15;;;;;;;;;;5025736;28;20049;-68
2023/10/23 13:42:49;;;;;;;28.38;16.77;;;;;;;;;;5048204;28;20045;-67
2023/10/23 13:45:15;;;;;;;29.75;17.73;;;;;;;;;;5047662;28;20048;-68
2023/10/23 13:47:41;;;;;;;27.13;16.67;;;;;;;;;;5024354;28;20052;-68
2023/10/23 13:50:08;;;;;;;25.80;16.90;;;;;;;;;;5045992;28;20036;-67
2023/10/23 13:52:34;;;;;;;27.13;16.75;;;;;;;;;;5040785;28;20501;-67
2023/10/23 13:55:00;;;;;;;23.48;14.40;;;;;;;;;;5026979;28;20445;-68
2023/10/23 13:57:26;;;;;;;23.13;14.80;;;;;;;;;;5045676;28;20654;-67
2023/10/23 13:59:52;;;;;;;22.05;13.85;;;;;;;;;;5045004;28;20544;-67
2023/10/23 14:02:18;;;;;;;24.13;14.82;;;;;;;;;;5043557;28;20400;-68
2023/10/23 14:04:44;;;;;;;23.77;15.10;;;;;;;;;;5036899;28;20047;-68